Glendale, AZ

9:55 PM MST on March 01, 2015 (GMT -0700)
Glendale Municipal | Change Station
CLOSE
Current Station
Airport
Location: Glendale,
Elevation: 1066 ft
Nearby Weather Stations
Active Advisory: Areal Flood Watch

Elev 1066 ft 33.53 °N, 112.29 °W | Updated 3 hours ago

Mostly Cloudy
Mostly Cloudy
72 °F
Feels Like 72 °F
N
7
Wind Variable Wind from South

Today
High -- | Low -- °F
--% Chance of Precip.
Yesterday
High -- | Low -- °F
Precip. -- in
6:57 AM 6:25 PM
Waxing Gibbous, 89% visible
Pressure 29.89 in
Visibility 20.0 miles
Clouds Scattered Clouds 5000 ft
Mostly Cloudy 10000 ft
Mostly Cloudy 20000 ft
Dew Point 45 °F
Humidity 38%
Rainfall 0.00 in
Snow Depth Not available.
UV 0 out of 12
Pollen 9.00 out of 12
Ozone Good
PM10 Good
Flu Activity Regional
METAR KGEU 020150Z 19006KT 20SM SCT050 BKN100 BKN200 22/07 A2989 RMK LAST

More Conditions Fewer Conditions

Pressure 29.89 in
Visibility 20.0 miles
Clouds Scattered Clouds 5000 ft
Mostly Cloudy 10000 ft
Mostly Cloudy 20000 ft
Dew Point 45 °F
Humidity 38%
Rainfall 0.00 in
Snow Depth Not available.
UV 0 out of 12
Pollen 9.00 out of 12
Ozone Good
PM10 Good
Flu Activity Regional
METAR KGEU 020150Z 19006KT 20SM SCT050 BKN100 BKN200 22/07 A2989 RMK LAST

More Conditions Fewer Conditions

10-Day Weather Forecast

Almanac

Astronomy

Mar. 01, 2015 Rise Set
Actual Time 6:57 AM MST 6:25 PM MST
Civil Twilight 6:32 AM MST 6:50 PM MST
Nautical Twilight 6:03 AM MST 7:19 PM MST
Astronomical Twilight 5:35 AM MST 7:48 PM MST
Moon 3:11 PM MST (3/1) 4:16 AM MST (3/1)
Length of Visible Light 12h 18m
Length of Day
11h 28m
Tomorrow will be 2m 3s longer.
Waxing Gibbous, 89% of the Moon is Illuminated
Today
Waxing Gibbous
Mar 5
Full
Mar 13
Last Quarter
Mar 20
New
Mar 27
First Quarter

Today's Extremes

State Highs State Lows

Community

WunderPhotos

Upload Photos

1,801,725 photos uploaded!

Nearby

Air Quality

  Air Quality AQ Index Pollutant
Yesterday Good
OZONE
Yesterday Good
PM10
Current Good
OZONE
Current Good
PM10
Sunday Good
OZONE
Sunday Good
PM10
Sunday Good
CO
Monday Good
OZONE
Monday Good
PM10
Monday Good
CO
Tuesday Good
OZONE
Tuesday Good
PM10
Tuesday Good
CO

Snow Depth

Station Depth Elevation
Workman Creek 1 in 6900 ft
Baker Butte 5 in 7300 ft
Promontory 3 in 7930 ft
Happy Jack 5 in 7630 ft
Heber 1 in 7640 ft

Earthquake Activity

City Distance Mag. Time & Date
Kingman, Arizona 132 miles 2.8 5:17 PM MST
2015-03-01
Minimum magnitude displayed is 2.5.

Coastal Water Temperatures

Place Temperature
No Stations Reporting

Nearby Weather Stations